createdAt,value
2023-05-25T00:01:06.232Z,10.69
2023-05-25T00:03:36.911Z,10.74
2023-05-25T00:06:07.225Z,10.65
2023-05-25T00:08:35.260Z,10.61
2023-05-25T00:11:05.582Z,10.54
2023-05-25T00:13:34.580Z,10.57
2023-05-25T00:16:06.685Z,10.52
2023-05-25T00:18:38.557Z,10.56
2023-05-25T00:21:08.416Z,10.46
2023-05-25T00:23:37.683Z,10.49
2023-05-25T00:26:06.298Z,10.41
2023-05-25T00:28:39.830Z,10.31
2023-05-25T00:31:08.148Z,10.25
2023-05-25T00:33:36.809Z,10.27
2023-05-25T00:36:06.488Z,10.27
2023-05-25T00:38:38.876Z,10.28
2023-05-25T00:41:07.030Z,10.27
2023-05-25T00:43:34.965Z,10.22
2023-05-25T00:46:04.553Z,10.15
2023-05-25T00:48:32.921Z,10.05
2023-05-25T00:51:01.934Z,9.86
2023-05-25T00:53:29.748Z,9.87
2023-05-25T00:56:06.226Z,9.82
2023-05-25T00:58:37.281Z,9.89
2023-05-25T01:01:06.362Z,9.73
2023-05-25T01:03:39.313Z,9.69
2023-05-25T01:06:13.099Z,9.58
2023-05-25T01:08:43.259Z,9.69
2023-05-25T01:11:13.350Z,9.66
2023-05-25T01:13:43.469Z,9.58
2023-05-25T01:16:11.304Z,9.71
2023-05-25T01:18:41.862Z,9.65
2023-05-25T01:21:18.189Z,9.68
2023-05-25T01:23:53.779Z,9.72
2023-05-25T01:26:24.878Z,9.72
2023-05-25T01:28:53.892Z,9.74
2023-05-25T01:31:23.819Z,9.71
2023-05-25T01:33:53.144Z,9.59
2023-05-25T01:36:22.373Z,9.44
2023-05-25T01:38:50.583Z,9.29
2023-05-25T01:41:18.326Z,9.15
2023-05-25T01:43:46.724Z,9.07
2023-05-25T01:46:23.397Z,9.00
2023-05-25T01:48:59.846Z,8.90
2023-05-25T01:51:45.114Z,8.77
2023-05-25T01:54:19.385Z,8.77
2023-05-25T01:56:50.016Z,8.64
2023-05-25T01:59:21.583Z,8.71
2023-05-25T02:01:52.939Z,8.66
2023-05-25T02:04:22.204Z,8.65
2023-05-25T02:06:52.588Z,8.78
2023-05-25T02:09:20.589Z,8.78
2023-05-25T02:11:48.260Z,8.70
2023-05-25T02:14:17.845Z,8.66
2023-05-25T02:16:47.060Z,8.67
2023-05-25T02:19:15.206Z,8.66
2023-05-25T02:21:43.241Z,8.64
2023-05-25T02:24:12.496Z,8.68
2023-05-25T02:26:40.744Z,8.65
2023-05-25T02:29:08.458Z,8.63
2023-05-25T02:31:36.224Z,8.64
2023-05-25T02:34:04.248Z,8.64
2023-05-25T02:36:32.085Z,8.66
2023-05-25T02:38:59.808Z,8.63
2023-05-25T02:41:29.005Z,8.69
2023-05-25T02:43:56.650Z,8.62
2023-05-25T02:46:24.446Z,8.53
2023-05-25T02:48:52.240Z,8.37
2023-05-25T02:51:19.882Z,8.32
2023-05-25T02:53:48.252Z,8.28
2023-05-25T02:56:16.250Z,8.12
2023-05-25T02:58:45.409Z,8.14
2023-05-25T03:01:18.714Z,8.18
2023-05-25T03:03:47.365Z,8.15
2023-05-25T03:06:16.058Z,8.17
2023-05-25T03:08:43.762Z,8.18
2023-05-25T03:11:11.580Z,8.07
2023-05-25T03:13:39.314Z,8.09
2023-05-25T03:16:09.224Z,8.00
2023-05-25T03:18:37.442Z,7.93
2023-05-25T03:21:05.529Z,7.90
2023-05-25T03:23:33.437Z,7.93
2023-05-25T03:26:01.142Z,7.85
2023-05-25T03:28:28.918Z,7.88
2023-05-25T03:30:57.789Z,7.83
2023-05-25T03:33:26.830Z,7.73
2023-05-25T03:35:54.518Z,7.77
2023-05-25T03:38:22.202Z,7.83
2023-05-25T03:40:49.919Z,7.85
2023-05-25T03:43:17.645Z,7.77
2023-05-25T03:45:45.484Z,7.74
2023-05-25T03:48:13.404Z,7.75
2023-05-25T03:50:42.576Z,7.80
2023-05-25T03:53:10.287Z,7.80
2023-05-25T03:55:38.414Z,7.95
2023-05-25T03:58:06.140Z,8.04
2023-05-25T04:00:33.952Z,8.08
2023-05-25T04:03:01.791Z,8.21
2023-05-25T04:05:29.630Z,8.33
2023-05-25T04:07:59.315Z,8.47
2023-05-25T04:10:26.956Z,8.53
2023-05-25T04:12:56.727Z,8.56
2023-05-25T04:15:25.098Z,8.56
2023-05-25T04:17:52.938Z,8.66
2023-05-25T04:20:20.980Z,8.72
2023-05-25T04:22:49.981Z,8.72
2023-05-25T04:25:19.983Z,8.69
2023-05-25T04:27:48.959Z,8.74
2023-05-25T04:30:17.334Z,8.76
2023-05-25T04:32:46.786Z,8.85
2023-05-25T04:35:15.439Z,8.93
2023-05-25T04:37:43.582Z,8.92
2023-05-25T04:40:14.081Z,9.00
2023-05-25T04:42:43.477Z,9.09
2023-05-25T04:45:11.918Z,9.24
2023-05-25T04:47:41.314Z,9.24
2023-05-25T04:50:10.370Z,9.30
2023-05-25T04:52:38.265Z,9.41
2023-05-25T04:55:07.855Z,9.55
2023-05-25T04:57:35.825Z,9.57
2023-05-25T05:00:07.150Z,9.56
2023-05-25T05:02:35.043Z,9.59
2023-05-25T05:05:02.901Z,9.71
2023-05-25T05:07:31.643Z,9.68
2023-05-25T05:09:59.426Z,9.71
2023-05-25T05:12:27.101Z,9.68
2023-05-25T05:14:56.015Z,9.76
2023-05-25T05:17:26.413Z,9.98
2023-05-25T05:19:54.389Z,9.89
2023-05-25T05:22:22.188Z,10.02
2023-05-25T05:24:50.965Z,10.19
2023-05-25T05:27:18.725Z,10.30
2023-05-25T05:29:46.611Z,10.31
2023-05-25T05:32:14.294Z,10.49
2023-05-25T05:34:43.355Z,10.48
2023-05-25T05:37:11.120Z,10.48
2023-05-25T05:39:38.876Z,10.42
2023-05-25T05:42:08.121Z,10.78
2023-05-25T05:44:36.155Z,10.61
2023-05-25T05:47:03.925Z,10.92
2023-05-25T05:49:32.240Z,11.10
2023-05-25T05:52:01.434Z,11.42
2023-05-25T05:54:29.194Z,11.68
2023-05-25T05:56:56.987Z,11.57
2023-05-25T05:59:24.985Z,11.83
2023-05-25T06:01:52.787Z,12.05
2023-05-25T06:04:20.980Z,11.82
2023-05-25T06:06:48.699Z,11.89
2023-05-25T06:09:18.868Z,12.03
2023-05-25T06:11:46.610Z,12.32
2023-05-25T06:14:14.435Z,12.47
2023-05-25T06:16:43.678Z,12.57
2023-05-25T06:19:11.772Z,12.58
2023-05-25T06:21:39.535Z,12.46
2023-05-25T06:24:08.277Z,12.35
2023-05-25T06:26:37.379Z,12.53
2023-05-25T06:29:05.088Z,12.29
2023-05-25T06:31:32.840Z,12.40
2023-05-25T06:34:00.695Z,12.59
2023-05-25T06:36:28.666Z,12.79
2023-05-25T06:38:56.498Z,12.72
2023-05-25T06:41:24.220Z,12.93
2023-05-25T06:43:53.284Z,13.11
2023-05-25T06:46:21.664Z,13.02
2023-05-25T06:48:49.529Z,13.22
2023-05-25T06:51:17.347Z,13.57
2023-05-25T06:53:46.436Z,13.69
2023-05-25T06:56:14.143Z,13.22
2023-05-25T06:58:42.157Z,13.73
2023-05-25T07:01:11.251Z,14.39
2023-05-25T07:03:39.526Z,14.36
2023-05-25T07:06:07.750Z,14.89
2023-05-25T07:08:36.315Z,15.12
2023-05-25T07:11:04.080Z,15.80
2023-05-25T07:13:31.912Z,15.49
2023-05-25T07:15:59.687Z,15.89
2023-05-25T07:18:28.912Z,16.77
2023-05-25T07:20:56.597Z,18.60
2023-05-25T07:23:24.406Z,18.16
2023-05-25T07:25:52.318Z,20.05
2023-05-25T07:28:20.219Z,20.38
2023-05-25T07:30:47.977Z,22.05
2023-05-25T07:33:15.715Z,24.50
2023-05-25T07:35:45.088Z,23.77
2023-05-25T07:38:12.919Z,21.89
2023-05-25T07:40:40.702Z,21.59
2023-05-25T07:43:09.230Z,22.87
2023-05-25T07:45:37.233Z,21.70
2023-05-25T07:48:07.217Z,20.77
2023-05-25T07:50:34.963Z,23.11
2023-05-25T07:53:04.016Z,24.02
2023-05-25T07:55:31.804Z,20.77
2023-05-25T07:57:59.588Z,22.90
2023-05-25T08:00:27.419Z,20.91
2023-05-25T08:02:55.462Z,21.34
2023-05-25T08:05:23.173Z,21.05
2023-05-25T08:07:50.997Z,21.22
2023-05-25T08:10:20.155Z,22.75
2023-05-25T08:12:50.209Z,22.86
2023-05-25T08:15:19.193Z,24.62
2023-05-25T08:17:49.423Z,23.85
2023-05-25T08:20:17.755Z,25.35
2023-05-25T08:22:45.589Z,23.62
2023-05-25T08:25:13.346Z,23.65
2023-05-25T08:27:42.715Z,23.80
2023-05-25T08:30:11.311Z,24.40
2023-05-25T08:32:39.380Z,24.92
2023-05-25T08:35:07.983Z,24.98
2023-05-25T08:37:37.636Z,27.31
2023-05-25T08:40:07.901Z,26.45
2023-05-25T08:42:37.309Z,25.21
2023-05-25T08:48:02.485Z,22.38
2023-05-25T08:50:31.994Z,25.30
2023-05-25T08:53:04.017Z,24.04
2023-05-25T08:55:36.807Z,24.20
2023-05-25T08:58:11.174Z,24.61
2023-05-25T09:00:46.279Z,23.34
2023-05-25T09:03:18.151Z,24.42
2023-05-25T09:05:46.910Z,24.06
2023-05-25T09:08:15.781Z,25.82
2023-05-25T09:10:44.184Z,27.79
2023-05-25T09:15:45.285Z,25.12
2023-05-25T09:18:13.268Z,25.12
2023-05-25T09:20:44.270Z,25.32
2023-05-25T09:23:43.494Z,23.76
2023-05-25T09:26:11.691Z,24.93
2023-05-25T09:28:47.652Z,24.08
2023-05-25T09:31:17.592Z,25.27
2023-05-25T09:33:46.999Z,25.85
2023-05-25T09:36:16.672Z,25.73
2023-05-25T09:38:45.283Z,25.08
2023-05-25T09:41:13.382Z,26.45
2023-05-25T09:43:46.812Z,25.25
2023-05-25T09:46:23.757Z,26.30
2023-05-25T09:48:53.635Z,25.87
2023-05-25T09:51:22.442Z,25.36
2023-05-25T09:53:50.906Z,24.31
2023-05-25T09:56:19.123Z,22.68
2023-05-25T09:58:46.837Z,22.10
2023-05-25T10:01:14.845Z,24.23
2023-05-25T10:03:59.820Z,23.06
2023-05-25T10:06:33.635Z,22.67
2023-05-25T10:09:04.971Z,22.06
2023-05-25T10:11:36.213Z,22.35
2023-05-25T10:14:07.704Z,23.06
2023-05-25T10:16:36.035Z,21.53
2023-05-25T10:19:14.950Z,22.17
2023-05-25T10:21:44.267Z,23.04
2023-05-25T10:24:21.733Z,24.90
2023-05-25T10:26:55.101Z,23.89
2023-05-25T10:29:25.055Z,24.21
2023-05-25T10:31:54.445Z,23.81
2023-05-25T10:34:23.917Z,24.46
2023-05-25T10:36:52.573Z,24.44
2023-05-25T10:39:21.297Z,24.53
2023-05-25T10:41:50.164Z,25.25
2023-05-25T10:44:18.736Z,25.60
2023-05-25T10:46:46.830Z,24.27
2023-05-25T10:49:14.581Z,23.14
2023-05-25T10:51:43.877Z,23.43
2023-05-25T10:54:14.743Z,22.57
2023-05-25T10:57:09.659Z,22.62
2023-05-25T10:59:37.871Z,22.90
2023-05-25T11:02:09.359Z,24.29
2023-05-25T11:04:38.082Z,24.56
2023-05-25T11:07:13.539Z,23.27
2023-05-25T11:09:45.962Z,24.39
2023-05-25T11:12:20.956Z,22.71
2023-05-25T11:15:18.866Z,23.22
2023-05-25T11:17:48.106Z,22.94
2023-05-25T11:20:33.108Z,23.03
2023-05-25T11:23:23.969Z,23.79
2023-05-25T11:25:51.693Z,24.68
2023-05-25T11:28:19.452Z,22.98
2023-05-25T11:30:47.199Z,22.76
2023-05-25T11:33:17.053Z,23.33
2023-05-25T11:35:45.530Z,23.67
2023-05-25T11:38:15.958Z,23.93
2023-05-25T11:40:43.665Z,24.21
2023-05-25T11:43:13.609Z,24.28
2023-05-25T11:45:41.464Z,23.70
2023-05-25T11:48:14.754Z,23.87
2023-05-25T11:50:42.626Z,24.81
2023-05-25T11:53:10.901Z,25.00
2023-05-25T11:55:41.047Z,23.86
2023-05-25T11:58:08.896Z,24.69
2023-05-25T12:00:36.601Z,24.09
2023-05-25T12:03:05.799Z,24.07
2023-05-25T12:05:40.276Z,23.55
2023-05-25T12:08:08.259Z,23.32
2023-05-25T12:10:52.248Z,23.42
2023-05-25T12:13:19.977Z,23.86
2023-05-25T12:15:48.000Z,23.63
2023-05-25T12:18:16.067Z,24.13
2023-05-25T12:20:43.956Z,23.63
2023-05-25T12:23:12.141Z,23.66
2023-05-25T12:25:50.285Z,23.17
2023-05-25T12:28:20.436Z,23.06
2023-05-25T12:30:48.350Z,23.41
2023-05-25T12:33:16.496Z,23.16
2023-05-25T12:35:48.719Z,22.61
2023-05-25T12:38:18.465Z,23.07
2023-05-25T12:40:46.446Z,23.14
2023-05-25T12:43:16.985Z,22.64
2023-05-25T12:45:46.266Z,22.57
2023-05-25T12:48:14.167Z,22.09
2023-05-25T12:50:59.856Z,22.39
2023-05-25T12:53:29.042Z,22.88
2023-05-25T12:56:04.249Z,22.77
2023-05-25T12:58:32.004Z,22.87
2023-05-25T13:01:02.633Z,23.21
2023-05-25T13:03:30.842Z,23.27
2023-05-25T13:06:02.370Z,23.67
2023-05-25T13:08:30.505Z,22.55
2023-05-25T13:10:58.380Z,22.34
2023-05-25T13:13:26.888Z,22.12
2023-05-25T13:15:54.793Z,22.20
2023-05-25T13:18:23.913Z,22.28
2023-05-25T13:20:55.174Z,22.16
2023-05-25T13:23:24.226Z,22.45
2023-05-25T13:25:51.897Z,22.79
2023-05-25T13:28:19.601Z,23.21
2023-05-25T13:30:47.303Z,22.56
2023-05-25T13:33:15.060Z,22.82
2023-05-25T13:35:58.279Z,23.14
2023-05-25T13:38:27.171Z,23.36
2023-05-25T13:40:54.890Z,23.52
2023-05-25T13:43:22.686Z,23.11
2023-05-25T13:45:50.484Z,22.72
2023-05-25T13:48:18.585Z,22.49
2023-05-25T13:50:47.855Z,22.75
2023-05-25T13:53:15.796Z,22.88
2023-05-25T13:55:43.946Z,23.05
2023-05-25T13:58:11.650Z,23.13
2023-05-25T14:00:39.458Z,22.68
2023-05-25T14:03:07.453Z,22.49
2023-05-25T14:05:35.224Z,22.71
2023-05-25T14:08:04.882Z,22.91
2023-05-25T14:10:32.862Z,22.99
2023-05-25T14:13:00.968Z,23.27
2023-05-25T14:15:28.733Z,23.43
2023-05-25T14:17:57.683Z,23.36
2023-05-25T14:20:26.556Z,22.98
2023-05-25T14:22:54.584Z,22.58
2023-05-25T14:25:23.814Z,22.67
2023-05-25T14:27:52.600Z,22.49
2023-05-25T14:30:21.015Z,22.35
2023-05-25T14:32:48.758Z,22.59
2023-05-25T14:35:16.477Z,22.53
2023-05-25T14:37:44.260Z,22.79
2023-05-25T14:40:13.204Z,22.46
2023-05-25T14:42:42.298Z,22.58
2023-05-25T14:45:11.692Z,22.52
2023-05-25T14:47:40.828Z,22.71
2023-05-25T14:50:09.690Z,22.77
2023-05-25T14:52:37.761Z,22.77
2023-05-25T14:55:06.040Z,22.68
2023-05-25T14:57:33.739Z,22.33
2023-05-25T15:00:03.602Z,22.53
2023-05-25T15:02:31.490Z,22.51
2023-05-25T15:04:59.513Z,22.75
2023-05-25T15:07:27.266Z,22.71
2023-05-25T15:09:54.978Z,22.86
2023-05-25T15:12:23.601Z,22.94
2023-05-25T15:14:51.317Z,23.00
2023-05-25T15:17:20.356Z,22.86
2023-05-25T15:19:48.345Z,23.05
2023-05-25T15:22:16.315Z,22.86
2023-05-25T15:24:44.062Z,22.75
2023-05-25T15:27:11.835Z,22.89
2023-05-25T15:29:39.815Z,22.57
2023-05-25T15:32:10.264Z,22.56
2023-05-25T15:34:39.681Z,22.75
2023-05-25T15:37:07.793Z,22.87
2023-05-25T15:39:35.553Z,22.82
2023-05-25T15:42:06.469Z,22.90
2023-05-25T15:44:35.649Z,22.57
2023-05-25T15:47:03.776Z,22.67
2023-05-25T15:49:32.178Z,22.79
2023-05-25T15:52:03.804Z,22.81
2023-05-25T15:54:32.180Z,22.59
2023-05-25T15:57:00.672Z,22.53
2023-05-25T15:59:28.381Z,22.53
2023-05-25T16:01:56.233Z,22.62
2023-05-25T16:04:24.416Z,22.64
2023-05-25T16:06:53.813Z,22.47
2023-05-25T16:09:22.851Z,22.42
2023-05-25T16:11:51.465Z,22.52
2023-05-25T16:14:19.519Z,22.50
2023-05-25T16:16:48.812Z,22.51
2023-05-25T16:19:17.169Z,22.60
2023-05-25T16:21:48.097Z,22.51
2023-05-25T16:24:26.900Z,22.49
2023-05-25T16:27:09.202Z,22.31
2023-05-25T16:29:42.102Z,22.29
2023-05-25T16:32:09.901Z,22.40
2023-05-25T16:34:37.696Z,22.32
2023-05-25T16:37:06.008Z,22.18
2023-05-25T16:39:34.037Z,22.17
2023-05-25T16:42:05.011Z,22.16
2023-05-25T16:44:33.062Z,22.20
2023-05-25T16:47:00.864Z,22.21
2023-05-25T16:49:28.612Z,22.22
2023-05-25T16:51:56.327Z,22.34
2023-05-25T16:54:24.419Z,22.28
2023-05-25T16:56:52.093Z,22.23
2023-05-25T16:59:22.981Z,22.35
2023-05-25T17:01:51.192Z,22.30
2023-05-25T17:04:19.077Z,22.18
2023-05-25T17:06:46.865Z,22.16
2023-05-25T17:09:14.749Z,22.00
2023-05-25T17:11:42.424Z,21.81
2023-05-25T17:14:10.490Z,21.77
2023-05-25T17:16:39.936Z,21.79
2023-05-25T17:19:07.808Z,21.83
2023-05-25T17:21:35.975Z,21.78
2023-05-25T17:24:03.955Z,21.77
2023-05-25T17:26:33.353Z,21.82
2023-05-25T17:29:01.661Z,21.71
2023-05-25T17:31:29.793Z,21.64
2023-05-25T17:33:59.107Z,21.60
2023-05-25T17:36:26.937Z,21.52
2023-05-25T17:38:54.962Z,21.44
2023-05-25T17:41:23.683Z,21.39
2023-05-25T17:43:51.640Z,21.28
2023-05-25T17:46:19.662Z,21.26
2023-05-25T17:48:47.372Z,21.17
2023-05-25T17:51:16.753Z,21.08
2023-05-25T17:53:44.919Z,21.02
2023-05-25T17:56:12.805Z,21.00
2023-05-25T17:58:41.026Z,20.94
2023-05-25T18:01:09.092Z,20.84
2023-05-25T18:03:37.063Z,20.79
2023-05-25T18:06:05.124Z,20.71
2023-05-25T18:08:34.416Z,20.67
2023-05-25T18:11:02.534Z,20.63
2023-05-25T18:13:30.281Z,20.58
2023-05-25T18:15:58.050Z,20.57
2023-05-25T18:18:25.787Z,20.46
2023-05-25T18:20:55.451Z,20.43
2023-05-25T18:23:23.781Z,20.35
2023-05-25T18:25:58.124Z,20.31
2023-05-25T18:28:25.810Z,20.22
2023-05-25T18:30:54.054Z,20.17
2023-05-25T18:33:23.451Z,20.13
2023-05-25T18:35:51.161Z,20.13
2023-05-25T18:38:18.877Z,20.02
2023-05-25T18:40:47.214Z,19.98
2023-05-25T18:43:16.433Z,19.93
2023-05-25T18:45:45.540Z,19.85
2023-05-25T18:48:13.553Z,19.76
2023-05-25T18:50:44.488Z,19.77
2023-05-25T18:53:12.693Z,19.69
2023-05-25T18:55:40.624Z,19.67
2023-05-25T18:58:08.569Z,19.60
2023-05-25T19:00:37.861Z,19.53
2023-05-25T19:03:06.747Z,19.48
2023-05-25T19:05:34.662Z,19.43
2023-05-25T19:08:03.855Z,19.39
2023-05-25T19:10:33.182Z,19.33
2023-05-25T19:13:00.971Z,19.25
2023-05-25T19:15:28.699Z,19.18
2023-05-25T19:18:00.579Z,19.13
2023-05-25T19:20:28.652Z,19.12
2023-05-25T19:22:57.419Z,19.03
2023-05-25T19:25:26.782Z,18.95
2023-05-25T19:27:55.184Z,18.87
2023-05-25T19:30:25.919Z,18.83
2023-05-25T19:32:53.903Z,18.71
2023-05-25T19:35:24.290Z,18.65
2023-05-25T19:37:52.173Z,18.57
2023-05-25T19:40:20.466Z,18.56
2023-05-25T19:42:48.278Z,18.49
2023-05-25T19:45:19.283Z,18.54
2023-05-25T19:47:57.819Z,18.45
2023-05-25T19:50:32.881Z,18.39
2023-05-25T19:53:02.913Z,18.34
2023-05-25T19:55:34.435Z,18.28
2023-05-25T19:58:08.830Z,18.25
2023-05-25T20:00:37.470Z,18.20
2023-05-25T20:03:12.026Z,18.14
2023-05-25T20:05:44.207Z,18.09
2023-05-25T20:08:15.268Z,18.06
2023-05-25T20:10:44.834Z,18.04
2023-05-25T20:13:14.118Z,17.93
2023-05-25T20:15:47.416Z,17.86
2023-05-25T20:18:23.828Z,17.81
2023-05-25T20:20:54.338Z,17.75
2023-05-25T20:23:22.880Z,17.77
2023-05-25T20:25:51.099Z,17.73
2023-05-25T20:28:23.901Z,17.66
2023-05-25T20:30:54.259Z,17.55
2023-05-25T20:33:24.620Z,17.54
2023-05-25T20:35:54.119Z,17.43
2023-05-25T20:38:28.022Z,17.33
2023-05-25T20:40:58.153Z,17.25
2023-05-25T20:43:26.831Z,17.25
2023-05-25T20:45:56.403Z,17.15
2023-05-25T20:48:25.731Z,17.13
2023-05-25T20:50:55.680Z,17.04
2023-05-25T20:53:36.773Z,16.98
2023-05-25T20:56:07.364Z,16.90
2023-05-25T20:58:38.041Z,16.88
2023-05-25T21:01:10.077Z,16.82
2023-05-25T21:03:38.698Z,16.82
2023-05-25T21:06:13.458Z,16.71
2023-05-25T21:08:44.489Z,16.73
2023-05-25T21:11:16.025Z,16.58
2023-05-25T21:13:47.590Z,16.57
2023-05-25T21:16:17.400Z,16.51
2023-05-25T21:18:48.007Z,16.53
2023-05-25T21:21:18.404Z,16.59
2023-05-25T21:23:47.342Z,16.49
2023-05-25T21:26:15.834Z,16.33
2023-05-25T21:28:46.160Z,16.41
2023-05-25T21:31:15.371Z,16.25
2023-05-25T21:33:43.734Z,16.25
2023-05-25T21:36:12.218Z,16.32
2023-05-25T21:38:42.014Z,16.22
2023-05-25T21:41:17.836Z,16.13
2023-05-25T21:43:46.159Z,16.03
2023-05-25T21:46:14.954Z,16.02
2023-05-25T21:48:43.207Z,15.99
2023-05-25T21:51:26.692Z,15.97
2023-05-25T21:53:58.101Z,15.92
2023-05-25T21:56:27.820Z,15.89
2023-05-25T21:58:58.488Z,15.86
2023-05-25T22:01:29.958Z,15.84
2023-05-25T22:03:59.466Z,15.87
2023-05-25T22:06:29.369Z,15.75
2023-05-25T22:09:01.163Z,15.67
2023-05-25T22:11:30.520Z,15.62
2023-05-25T22:13:59.617Z,15.59
2023-05-25T22:16:28.614Z,15.52
2023-05-25T22:45:17.902Z,15.17
2023-05-25T22:47:47.066Z,15.14
2023-05-25T22:50:17.031Z,15.16
2023-05-25T22:52:45.160Z,15.03
2023-05-25T22:55:13.192Z,14.90
2023-05-25T22:57:42.749Z,14.89
2023-05-25T23:00:11.124Z,14.91
2023-05-25T23:02:41.208Z,14.88
2023-05-25T23:05:11.433Z,14.78
2023-05-25T23:07:41.331Z,14.85
2023-05-25T23:10:10.931Z,14.68
2023-05-25T23:12:41.976Z,14.62
2023-05-25T23:15:13.792Z,14.58
2023-05-25T23:17:42.740Z,14.65
2023-05-25T23:20:12.487Z,14.55
2023-05-25T23:22:41.858Z,14.50
2023-05-25T23:25:13.988Z,14.48
2023-05-25T23:27:43.234Z,14.40
2023-05-25T23:30:15.883Z,14.39
2023-05-25T23:32:48.114Z,14.39
2023-05-25T23:35:16.531Z,14.37
2023-05-25T23:37:46.796Z,14.21
2023-05-25T23:40:21.872Z,14.25
2023-05-25T23:42:49.878Z,14.23
2023-05-25T23:45:22.852Z,14.17
2023-05-25T23:47:53.055Z,14.17
2023-05-25T23:50:22.898Z,14.11
2023-05-25T23:52:52.043Z,14.06
2023-05-25T23:55:20.915Z,14.06
2023-05-25T23:57:49.786Z,14.08
